Time;durP1;ratioP1;P1;durP2;ratioP2;P2;SDS_P1;SDS_P2;PMS_P1;PMS_P2;Temp;Humidity;BMP_temperature;BMP_pressure;BME280_temperature;BME280_humidity;BME280_pressure;Samples;Min_cycle;Max_cycle;Signal;HPM_P1;HPM_P2
2023/01/19 00:01:23;;;;;;;17.70;8.33;;;0.10;99.90;;;;;;5027230;28;20699;-76
2023/01/19 00:03:49;;;;;;;16.40;9.77;;;0.10;99.90;;;;;;5041386;28;20260;-77
2023/01/19 00:06:14;;;;;;;16.57;8.57;;;0.00;99.90;;;;;;5040997;28;20190;-77
2023/01/19 00:08:43;;;;;;;16.83;8.30;;;0.00;99.90;;;;;;5027624;28;20251;-77
2023/01/19 00:11:09;;;;;;;16.20;8.57;;;0.00;99.90;;;;;;5039268;28;20276;-78
2023/01/19 00:13:35;;;;;;;21.83;9.53;;;0.00;99.90;;;;;;5019931;28;20255;-75
2023/01/19 00:16:01;;;;;;;16.00;7.87;;;0.00;99.90;;;;;;5021742;28;20264;-75
2023/01/19 00:18:27;;;;;;;16.53;9.60;;;-0.10;99.90;;;;;;5037079;28;20316;-76
2023/01/19 00:20:52;;;;;;;12.87;7.73;;;-0.10;99.90;;;;;;5041429;28;20216;-77
2023/01/19 00:23:19;;;;;;;17.93;9.33;;;-0.10;99.90;;;;;;5030427;28;20203;-77
2023/01/19 00:25:46;;;;;;;14.77;8.30;;;-0.10;99.90;;;;;;5040816;28;20219;-73
2023/01/19 00:28:14;;;;;;;15.77;8.10;;;-0.10;99.90;;;;;;5030049;28;20200;-75
2023/01/19 00:30:41;;;;;;;16.13;8.20;;;-0.10;99.90;;;;;;5037626;28;20288;-76
2023/01/19 00:33:07;;;;;;;15.90;8.90;;;-0.20;99.90;;;;;;5040616;28;20284;-74
2023/01/19 00:35:34;;;;;;;18.43;8.47;;;-0.10;99.90;;;;;;5026667;28;20176;-76
2023/01/19 00:38:00;;;;;;;14.27;8.03;;;-0.20;99.90;;;;;;5031855;28;20203;-76
2023/01/19 00:40:26;;;;;;;16.00;8.20;;;-0.20;99.90;;;;;;5039946;28;20737;-76
2023/01/19 00:42:52;;;;;;;15.13;8.53;;;-0.20;99.90;;;;;;5020829;28;20271;-76
2023/01/19 00:45:20;;;;;;;14.03;7.37;;;-0.20;99.90;;;;;;5026752;28;20222;-75
2023/01/19 00:47:47;;;;;;;12.50;7.53;;;-0.20;99.90;;;;;;5040707;28;20188;-74
2023/01/19 00:50:15;;;;;;;14.57;7.73;;;-0.20;99.90;;;;;;5038706;28;20210;-76
2023/01/19 00:52:42;;;;;;;14.60;8.63;;;-0.20;99.90;;;;;;5039714;28;20589;-74
2023/01/19 00:55:10;;;;;;;13.80;7.43;;;-0.20;99.90;;;;;;5038948;28;20216;-75
2023/01/19 00:57:37;;;;;;;16.60;8.40;;;-0.20;99.90;;;;;;5036857;28;20216;-74
2023/01/19 01:00:10;;;;;;;17.20;8.73;;;-0.20;99.90;;;;;;5029738;28;20201;-76
2023/01/19 01:02:36;;;;;;;16.10;8.50;;;-0.20;99.90;;;;;;5037183;28;20183;-77
2023/01/19 01:05:02;;;;;;;16.13;8.20;;;-0.30;99.90;;;;;;5021173;28;20218;-76
2023/01/19 01:07:29;;;;;;;17.80;8.67;;;-0.30;99.90;;;;;;5042507;28;20218;-76
2023/01/19 01:09:57;;;;;;;16.53;9.00;;;-0.30;99.90;;;;;;5043939;28;20225;-77
2023/01/19 01:12:23;;;;;;;17.17;9.20;;;-0.30;99.90;;;;;;5027292;28;20225;-75
2023/01/19 01:14:49;;;;;;;17.00;8.53;;;-0.30;99.90;;;;;;5036844;28;20251;-77
2023/01/19 01:17:14;;;;;;;18.00;9.30;;;-0.30;99.90;;;;;;5033784;28;20218;-77
2023/01/19 01:19:40;;;;;;;19.37;8.97;;;-0.30;99.90;;;;;;5039393;28;20258;-76
2023/01/19 01:22:08;;;;;;;17.67;9.23;;;-0.30;99.90;;;;;;5021004;28;20299;-74
2023/01/19 01:24:34;;;;;;;18.37;9.57;;;-0.30;99.90;;;;;;5039453;28;20223;-74
2023/01/19 01:26:59;;;;;;;15.30;8.60;;;-0.30;99.90;;;;;;5048669;28;20193;-75
2023/01/19 01:29:25;;;;;;;15.63;7.70;;;-0.30;99.90;;;;;;5055452;22;20347;-77
2023/01/19 01:31:51;;;;;;;15.93;9.00;;;-0.40;99.90;;;;;;5058387;28;20285;-76
2023/01/19 01:34:16;;;;;;;14.53;8.93;;;-0.40;99.90;;;;;;5052017;28;20733;-76
2023/01/19 01:36:43;;;;;;;15.13;9.10;;;-0.40;99.90;;;;;;5050880;28;20219;-74
2023/01/19 01:39:08;;;;;;;16.57;8.43;;;-0.30;99.90;;;;;;5053761;28;20219;-75
2023/01/19 01:41:34;;;;;;;13.77;8.50;;;-0.30;99.90;;;;;;5042596;28;20210;-76
2023/01/19 01:44:00;;;;;;;15.97;8.87;;;-0.30;99.90;;;;;;5039762;28;20225;-73
2023/01/19 01:46:28;;;;;;;16.57;8.93;;;-0.30;99.90;;;;;;5045940;28;20211;-75
2023/01/19 01:49:13;;;;;;;16.50;9.07;;;-0.40;99.90;;;;;;5042567;28;20219;-75
2023/01/19 01:51:39;;;;;;;15.87;9.17;;;-0.40;99.90;;;;;;5038046;28;20300;-76
2023/01/19 01:54:15;;;;;;;17.90;8.23;;;-0.40;99.90;;;;;;5037829;28;20325;-76
2023/01/19 01:56:47;;;;;;;15.60;8.50;;;-0.50;99.90;;;;;;5043863;28;20173;-76
2023/01/19 01:59:39;;;;;;;16.07;8.33;;;-0.40;99.90;;;;;;5039799;28;20597;-77
2023/01/19 02:04:57;;;;;;;18.73;9.07;;;-0.50;99.90;;;;;;5044175;28;20216;-75
2023/01/19 02:13:24;;;;;;;16.47;8.60;;;-0.50;99.90;;;;;;5039616;28;20263;-76
2023/01/19 02:15:57;;;;;;;14.17;8.27;;;-0.60;99.90;;;;;;5040634;28;20205;-75
2023/01/19 02:18:27;;;;;;;15.80;8.57;;;-0.60;99.90;;;;;;5040507;28;20250;-76
2023/01/19 02:21:05;;;;;;;19.67;8.80;;;-0.60;99.90;;;;;;5038752;28;20227;-76
2023/01/19 02:23:47;;;;;;;17.27;9.03;;;-0.60;99.90;;;;;;5042566;28;20254;-76
2023/01/19 02:26:34;;;;;;;17.27;9.07;;;-0.60;99.90;;;;;;5036690;28;20208;-75
2023/01/19 02:29:09;;;;;;;14.13;9.10;;;-0.60;99.90;;;;;;5035540;28;20234;-75
2023/01/19 02:31:37;;;;;;;15.10;8.67;;;-0.70;99.90;;;;;;5037785;28;20209;-76
2023/01/19 02:34:05;;;;;;;23.00;10.20;;;-0.70;99.90;;;;;;5041320;28;20266;-76
2023/01/19 02:36:39;;;;;;;20.07;8.97;;;-0.80;99.90;;;;;;5041071;28;20212;-76
2023/01/19 02:39:07;;;;;;;20.63;8.47;;;-0.80;99.90;;;;;;5040156;28;20224;-76
2023/01/19 02:41:40;;;;;;;20.33;9.40;;;-0.80;99.90;;;;;;5045870;28;20182;-76
2023/01/19 02:44:08;;;;;;;17.37;8.87;;;-0.80;99.90;;;;;;5039621;28;20202;-76
2023/01/19 02:46:34;;;;;;;17.90;10.10;;;-0.80;99.90;;;;;;5042782;28;20254;-74
2023/01/19 02:49:00;;;;;;;19.50;10.37;;;-0.80;99.90;;;;;;5043581;28;20288;-75
2023/01/19 02:51:27;;;;;;;17.97;10.47;;;-0.90;99.90;;;;;;5041437;28;20214;-75
2023/01/19 02:54:02;;;;;;;18.80;9.20;;;-0.90;99.90;;;;;;5039552;28;20308;-75
2023/01/19 02:56:47;;;;;;;20.73;9.67;;;-0.90;99.90;;;;;;5038357;28;20205;-76
2023/01/19 02:59:38;;;;;;;16.80;9.13;;;-0.90;99.90;;;;;;5020710;28;20712;-75
2023/01/19 03:02:37;;;;;;;18.80;9.23;;;-0.90;99.90;;;;;;5035169;28;20211;-74
2023/01/19 03:05:09;;;;;;;16.87;9.97;;;-0.90;99.90;;;;;;5022661;28;20258;-75
2023/01/19 03:08:00;;;;;;;17.27;10.17;;;-0.90;99.90;;;;;;5040858;28;20330;-76
2023/01/19 03:10:52;;;;;;;19.83;10.67;;;-0.90;99.90;;;;;;5040567;28;20578;-76
2023/01/19 03:13:44;;;;;;;18.10;9.40;;;-0.90;99.90;;;;;;5040510;28;20299;-76
2023/01/19 03:16:27;;;;;;;21.63;10.00;;;-1.00;99.90;;;;;;5039501;28;20243;-76
2023/01/19 03:19:08;;;;;;;15.60;9.20;;;-1.00;99.90;;;;;;5044813;28;20978;-77
2023/01/19 03:21:36;;;;;;;19.47;9.67;;;-1.00;99.90;;;;;;5044889;28;20207;-76
2023/01/19 03:24:05;;;;;;;20.07;10.43;;;-1.00;99.90;;;;;;5042796;28;20184;-76
2023/01/19 03:26:38;;;;;;;18.80;10.17;;;-1.00;99.90;;;;;;5041944;28;20205;-76
2023/01/19 03:29:05;;;;;;;21.93;10.23;;;-1.00;99.90;;;;;;5043227;28;20203;-75
2023/01/19 03:31:33;;;;;;;18.83;10.50;;;-1.00;99.90;;;;;;5029979;28;20247;-78
2023/01/19 03:34:08;;;;;;;21.37;10.40;;;-1.10;99.90;;;;;;5038668;28;20256;-76
2023/01/19 03:36:48;;;;;;;19.37;10.57;;;-1.10;99.90;;;;;;5046444;28;20216;-77
2023/01/19 03:39:18;;;;;;;20.60;10.77;;;-1.10;99.90;;;;;;5043063;28;20269;-76
2023/01/19 03:41:47;;;;;;;21.77;10.40;;;-1.20;99.90;;;;;;5045582;28;20181;-77
2023/01/19 03:44:13;;;;;;;21.07;11.20;;;-1.30;99.90;;;;;;5040547;28;20205;-75
2023/01/19 03:46:39;;;;;;;21.77;11.37;;;-1.30;99.90;;;;;;5040254;28;20619;-76
2023/01/19 03:49:06;;;;;;;19.10;11.43;;;-1.30;99.90;;;;;;5043420;28;20240;-77
2023/01/19 03:51:36;;;;;;;19.93;11.13;;;-1.30;99.90;;;;;;5039315;28;20303;-76
2023/01/19 03:54:03;;;;;;;24.00;11.00;;;-1.30;99.90;;;;;;5033810;28;20686;-76
2023/01/19 03:56:28;;;;;;;20.47;11.53;;;-1.30;99.90;;;;;;5042320;28;20172;-76
2023/01/19 03:58:54;;;;;;;20.93;11.47;;;-1.30;99.90;;;;;;5039893;28;20717;-77
2023/01/19 04:01:21;;;;;;;17.93;10.47;;;-1.30;99.90;;;;;;5043939;28;20219;-77
2023/01/19 04:03:51;;;;;;;20.90;11.40;;;-1.30;99.90;;;;;;5040970;28;20205;-75
2023/01/19 04:06:18;;;;;;;21.37;11.30;;;-1.30;99.90;;;;;;5036504;28;20184;-76
2023/01/19 04:08:44;;;;;;;18.50;10.30;;;-1.30;99.90;;;;;;5040525;28;20208;-77
2023/01/19 04:11:10;;;;;;;21.17;10.83;;;-1.40;99.90;;;;;;5037192;28;20205;-76
2023/01/19 04:13:37;;;;;;;18.60;11.10;;;-1.40;99.90;;;;;;5041448;28;20591;-77
2023/01/19 04:16:03;;;;;;;21.63;11.77;;;-1.40;99.90;;;;;;5039045;28;20207;-78
2023/01/19 04:18:31;;;;;;;27.87;11.33;;;-1.40;99.90;;;;;;5039253;28;20284;-75
2023/01/19 04:21:04;;;;;;;22.63;12.27;;;-1.40;99.90;;;;;;5038086;28;20802;-75
2023/01/19 04:23:30;;;;;;;24.67;11.30;;;-1.40;99.90;;;;;;5039412;28;20238;-75
2023/01/19 04:26:04;;;;;;;23.60;11.23;;;-1.40;99.90;;;;;;5039941;28;20759;-76
2023/01/19 04:28:31;;;;;;;21.97;10.90;;;-1.40;99.90;;;;;;5039055;28;20218;-77
2023/01/19 04:30:57;;;;;;;22.10;12.03;;;-1.50;99.90;;;;;;5040000;28;20258;-76
2023/01/19 04:33:24;;;;;;;20.83;11.37;;;-1.50;99.90;;;;;;5035807;28;21345;-75
2023/01/19 04:35:51;;;;;;;24.40;12.27;;;-1.50;99.90;;;;;;5042711;28;20176;-77
2023/01/19 04:38:18;;;;;;;23.90;11.73;;;-1.50;99.90;;;;;;5046167;28;20210;-76
2023/01/19 04:40:44;;;;;;;20.60;11.10;;;-1.50;99.90;;;;;;5040776;28;20334;-75
2023/01/19 04:43:10;;;;;;;22.87;11.60;;;-1.50;99.90;;;;;;5037923;28;20209;-75
2023/01/19 04:45:36;;;;;;;20.77;11.43;;;-1.50;99.90;;;;;;5039117;28;20195;-76
2023/01/19 04:48:05;;;;;;;22.77;11.33;;;-1.50;99.90;;;;;;5041730;28;20607;-75
2023/01/19 04:50:31;;;;;;;22.50;11.70;;;-1.50;99.90;;;;;;5039682;28;20686;-77
2023/01/19 04:52:57;;;;;;;21.93;11.83;;;-1.40;99.90;;;;;;5039203;28;20211;-77
2023/01/19 04:55:23;;;;;;;17.47;10.93;;;-1.50;99.90;;;;;;5038029;28;20217;-76
2023/01/19 04:57:49;;;;;;;20.73;10.93;;;-1.40;99.90;;;;;;5040168;28;20208;-77
2023/01/19 05:00:15;;;;;;;24.83;12.43;;;-1.50;99.90;;;;;;5035261;28;20979;-76
2023/01/19 05:02:44;;;;;;;21.43;11.77;;;-1.50;99.90;;;;;;5041748;28;20192;-77
2023/01/19 05:05:10;;;;;;;19.53;11.23;;;-1.40;99.90;;;;;;5035091;28;20248;-77
2023/01/19 05:07:36;;;;;;;21.37;11.77;;;-1.40;99.90;;;;;;5036024;28;20215;-77
2023/01/19 05:10:02;;;;;;;22.80;11.53;;;-1.50;99.90;;;;;;5037452;28;20306;-76
2023/01/19 05:12:28;;;;;;;21.03;11.00;;;-1.50;99.90;;;;;;5035878;28;20318;-76
2023/01/19 05:14:53;;;;;;;22.27;11.40;;;-1.60;99.90;;;;;;5039691;28;20259;-75
2023/01/19 05:17:19;;;;;;;21.10;11.67;;;-1.60;99.90;;;;;;5037984;28;20223;-76
2023/01/19 05:19:45;;;;;;;22.90;10.87;;;-1.60;99.90;;;;;;5035541;28;20215;-75
2023/01/19 05:22:10;;;;;;;19.13;11.03;;;-1.70;99.90;;;;;;5040600;28;20264;-75
2023/01/19 05:24:36;;;;;;;20.70;11.30;;;-1.70;99.90;;;;;;5035437;28;20620;-76
2023/01/19 05:27:02;;;;;;;21.60;11.90;;;-1.70;99.90;;;;;;5039550;28;20187;-76
2023/01/19 05:29:27;;;;;;;22.77;11.73;;;-1.70;99.90;;;;;;5039877;28;20212;-77
2023/01/19 05:31:53;;;;;;;17.73;10.53;;;-1.60;99.90;;;;;;5036155;28;20199;-76
2023/01/19 05:34:19;;;;;;;21.40;11.67;;;-1.60;99.90;;;;;;5036400;28;20676;-76
2023/01/19 05:36:44;;;;;;;20.93;11.40;;;-1.60;99.90;;;;;;5041794;28;20218;-76
2023/01/19 05:39:10;;;;;;;18.73;10.93;;;-1.60;99.90;;;;;;5038879;28;20678;-75
2023/01/19 05:41:36;;;;;;;20.87;12.33;;;-1.60;99.90;;;;;;5040329;28;20849;-76
2023/01/19 05:44:01;;;;;;;19.07;11.30;;;-1.70;99.90;;;;;;5038003;28;20211;-76
2023/01/19 05:46:27;;;;;;;25.40;12.30;;;-1.60;99.90;;;;;;5045017;28;20707;-76
2023/01/19 05:48:52;;;;;;;19.97;11.23;;;-1.60;99.90;;;;;;5036423;28;20207;-76
2023/01/19 05:51:18;;;;;;;20.10;10.83;;;-1.70;99.90;;;;;;5034034;28;20224;-76
2023/01/19 05:53:44;;;;;;;20.97;11.17;;;-1.70;99.90;;;;;;5043348;28;20575;-77
2023/01/19 05:56:10;;;;;;;21.80;10.90;;;-1.70;99.90;;;;;;5043704;28;20226;-76
2023/01/19 05:58:38;;;;;;;19.23;10.90;;;-1.70;99.90;;;;;;5039628;28;20207;-76
2023/01/19 06:01:08;;;;;;;20.33;10.70;;;-1.70;99.90;;;;;;5042549;28;20356;-77
2023/01/19 06:03:35;;;;;;;18.80;10.60;;;-1.70;99.90;;;;;;5040987;28;20212;-76
2023/01/19 06:06:01;;;;;;;20.43;11.13;;;-1.70;99.90;;;;;;5040153;28;20673;-76
2023/01/19 06:08:27;;;;;;;20.33;10.90;;;-1.70;99.90;;;;;;5043898;28;20196;-76
2023/01/19 06:10:53;;;;;;;18.33;10.03;;;-1.70;99.90;;;;;;5042663;28;20203;-76
2023/01/19 06:13:19;;;;;;;24.03;12.40;;;-1.70;99.90;;;;;;5040147;28;20224;-75
2023/01/19 06:15:44;;;;;;;17.03;11.13;;;-1.70;99.90;;;;;;5046073;28;20214;-75
2023/01/19 06:18:11;;;;;;;18.13;10.80;;;-1.70;99.90;;;;;;5041008;28;20185;-75
2023/01/19 06:20:37;;;;;;;21.93;11.27;;;-1.70;99.90;;;;;;5046862;28;20247;-75
2023/01/19 06:23:02;;;;;;;18.97;10.70;;;-1.70;99.90;;;;;;5043777;28;20211;-76
2023/01/19 06:25:28;;;;;;;22.40;11.53;;;-1.70;99.90;;;;;;5040462;28;20223;-73
2023/01/19 06:27:54;;;;;;;16.67;9.80;;;-1.70;99.90;;;;;;5047295;28;20206;-76
2023/01/19 06:30:19;;;;;;;18.13;11.10;;;-1.80;99.90;;;;;;5040461;28;20674;-76
2023/01/19 06:32:46;;;;;;;18.90;10.53;;;-1.80;99.90;;;;;;5036550;28;20779;-73
2023/01/19 06:35:12;;;;;;;17.27;10.30;;;-1.80;99.90;;;;;;5043558;28;20875;-75
2023/01/19 06:37:38;;;;;;;18.63;10.13;;;-1.90;99.90;;;;;;5047092;28;20238;-76
2023/01/19 06:40:04;;;;;;;16.23;9.90;;;-1.90;99.90;;;;;;5046244;28;20261;-76
2023/01/19 06:42:30;;;;;;;18.60;10.07;;;-1.90;99.90;;;;;;5040386;28;20209;-76
2023/01/19 06:44:55;;;;;;;22.10;11.47;;;-1.80;99.90;;;;;;5042059;28;20259;-76
2023/01/19 06:47:21;;;;;;;16.47;10.17;;;-1.90;99.90;;;;;;5046049;28;20215;-75
2023/01/19 06:49:47;;;;;;;20.53;10.53;;;-1.90;99.90;;;;;;5042466;28;20294;-76
2023/01/19 06:52:15;;;;;;;18.37;10.73;;;-1.90;99.90;;;;;;5039148;28;20216;-77
2023/01/19 06:54:42;;;;;;;16.40;10.07;;;-1.90;99.90;;;;;;5038715;28;20290;-77
2023/01/19 06:57:08;;;;;;;18.77;10.30;;;-1.90;99.90;;;;;;5041949;28;20168;-76
2023/01/19 06:59:34;;;;;;;21.17;10.13;;;-1.90;99.90;;;;;;5037082;28;20199;-76
2023/01/19 07:01:59;;;;;;;19.23;10.20;;;-1.90;99.90;;;;;;5042033;28;20203;-76
2023/01/19 07:04:25;;;;;;;19.13;11.60;;;-1.90;99.90;;;;;;5037936;28;20265;-77
2023/01/19 07:06:51;;;;;;;17.37;10.13;;;-1.90;99.90;;;;;;5045727;28;20207;-76
2023/01/19 07:09:19;;;;;;;18.73;9.97;;;-1.80;99.90;;;;;;5039724;28;20545;-74
2023/01/19 07:11:45;;;;;;;16.67;9.97;;;-1.80;99.90;;;;;;5042464;28;20182;-75
2023/01/19 07:14:11;;;;;;;23.00;10.03;;;-1.90;99.90;;;;;;5037413;28;20212;-76
2023/01/19 07:16:36;;;;;;;19.00;10.20;;;-1.90;99.90;;;;;;5042567;28;20726;-76
2023/01/19 07:19:03;;;;;;;14.77;8.93;;;-1.90;99.90;;;;;;5041144;28;20252;-77
2023/01/19 07:21:28;;;;;;;16.13;9.50;;;-1.90;99.90;;;;;;5044140;28;20219;-77
2023/01/19 07:23:54;;;;;;;16.53;10.83;;;-1.80;99.90;;;;;;5042697;28;20176;-76
2023/01/19 07:26:23;;;;;;;19.13;10.27;;;-1.80;99.90;;;;;;5040320;28;20221;-76
2023/01/19 07:28:50;;;;;;;18.83;10.20;;;-1.80;99.90;;;;;;5048262;28;20582;-77
2023/01/19 07:31:17;;;;;;;18.33;9.73;;;-1.80;99.90;;;;;;5039600;22;20321;-74
2023/01/19 07:33:43;;;;;;;18.37;10.87;;;-1.70;99.90;;;;;;5059242;28;20226;-70
2023/01/19 07:36:09;;;;;;;23.03;10.43;;;-1.70;99.90;;;;;;5067338;28;20177;-73
2023/01/19 07:38:35;;;;;;;16.27;9.50;;;-1.60;99.90;;;;;;5061484;28;20556;-72
2023/01/19 07:41:05;;;;;;;16.27;9.83;;;-1.60;99.90;;;;;;5066270;28;20303;-74
2023/01/19 07:43:31;;;;;;;14.80;9.07;;;-1.60;99.90;;;;;;5059029;28;20338;-73
2023/01/19 07:46:02;;;;;;;15.73;10.30;;;-1.60;99.90;;;;;;5057994;28;20940;-73
2023/01/19 07:48:28;;;;;;;17.60;9.73;;;-1.70;99.90;;;;;;5064342;28;20216;-74
2023/01/19 07:51:04;;;;;;;16.37;9.67;;;-1.60;99.90;;;;;;5062563;28;20202;-75
2023/01/19 07:53:30;;;;;;;18.17;9.47;;;-1.60;99.90;;;;;;5064348;28;20595;-74
2023/01/19 07:55:56;;;;;;;19.17;9.47;;;-1.60;99.90;;;;;;5065149;28;20215;-74
2023/01/19 07:58:23;;;;;;;18.03;9.83;;;-1.50;99.90;;;;;;5059355;28;20477;-73
2023/01/19 08:00:49;;;;;;;16.83;8.87;;;-1.20;99.90;;;;;;5057126;28;20219;-74
2023/01/19 08:03:16;;;;;;;15.47;9.53;;;-0.10;99.90;;;;;;5062530;28;20189;-73
2023/01/19 08:05:42;;;;;;;15.70;9.53;;;1.70;99.90;;;;;;5062259;28;20177;-73
2023/01/19 08:08:07;;;;;;;15.20;8.23;;;2.60;99.90;;;;;;5064682;28;20210;-72
2023/01/19 08:10:33;;;;;;;14.83;8.30;;;3.10;99.90;;;;;;5046477;28;20270;-74
2023/01/19 08:12:59;;;;;;;18.33;10.07;;;3.20;99.90;;;;;;5040798;28;20251;-73
2023/01/19 08:15:25;;;;;;;11.97;7.57;;;3.30;99.90;;;;;;5063031;28;20224;-74
2023/01/19 08:18:04;;;;;;;15.20;7.97;;;3.50;99.90;;;;;;5044156;28;20198;-74
2023/01/19 08:20:31;;;;;;;13.67;7.77;;;3.20;99.90;;;;;;5041936;28;20640;-73
2023/01/19 08:22:59;;;;;;;15.03;8.30;;;2.00;99.90;;;;;;5060147;28;20212;-74
2023/01/19 08:25:37;;;;;;;13.60;7.47;;;1.30;99.90;;;;;;5033444;28;20219;-74
2023/01/19 08:28:04;;;;;;;13.57;7.73;;;0.80;99.90;;;;;;5043296;28;20218;-74
2023/01/19 08:30:30;;;;;;;11.83;7.83;;;0.60;99.90;;;;;;5062602;28;20232;-76
2023/01/19 08:33:02;;;;;;;13.40;7.47;;;0.70;99.90;;;;;;5065087;28;20221;-72
2023/01/19 08:35:31;;;;;;;11.70;7.63;;;1.00;99.90;;;;;;5046212;28;20223;-74
2023/01/19 08:38:00;;;;;;;11.60;6.97;;;1.10;99.90;;;;;;5061251;28;20217;-74
2023/01/19 08:40:29;;;;;;;12.10;7.60;;;1.30;99.90;;;;;;5061431;28;20218;-74
2023/01/19 08:43:05;;;;;;;12.80;7.07;;;1.40;99.90;;;;;;5063179;28;20690;-74
2023/01/19 08:45:31;;;;;;;14.43;7.23;;;1.50;99.90;;;;;;5030111;28;20282;-73
2023/01/19 08:48:00;;;;;;;15.70;7.47;;;1.60;99.90;;;;;;5067402;28;20600;-74
2023/01/19 08:50:27;;;;;;;10.80;7.03;;;1.70;99.90;;;;;;5040094;28;20301;-74
2023/01/19 08:52:58;;;;;;;15.73;8.03;;;1.60;99.90;;;;;;5056970;28;20220;-73
2023/01/19 08:55:24;;;;;;;14.63;7.70;;;1.60;99.90;;;;;;5060559;28;20209;-76
2023/01/19 08:57:52;;;;;;;10.03;6.60;;;1.50;99.90;;;;;;5042666;28;20277;-73
2023/01/19 09:00:18;;;;;;;12.97;8.20;;;1.40;99.90;;;;;;5041599;28;20568;-70
2023/01/19 09:02:43;;;;;;;14.83;7.20;;;1.40;99.90;;;;;;5047215;28;20180;-72
2023/01/19 09:05:09;;;;;;;11.20;6.70;;;1.70;99.90;;;;;;5058765;28;20213;-74
2023/01/19 09:07:35;;;;;;;13.07;6.90;;;1.60;99.90;;;;;;5057260;28;20582;-73
2023/01/19 09:10:02;;;;;;;12.47;6.97;;;1.60;99.90;;;;;;5059972;28;20216;-73
2023/01/19 09:12:28;;;;;;;11.40;6.40;;;1.90;99.90;;;;;;5056457;28;20226;-70
2023/01/19 09:14:53;;;;;;;11.53;6.83;;;1.70;99.90;;;;;;5060301;28;20213;-71
2023/01/19 09:17:19;;;;;;;13.57;7.00;;;1.90;99.90;;;;;;5062744;28;20684;-73
2023/01/19 09:19:45;;;;;;;9.53;6.40;;;2.10;99.90;;;;;;5062398;28;20201;-71
2023/01/19 09:22:10;;;;;;;12.67;6.97;;;2.40;99.90;;;;;;5044109;28;20218;-73
2023/01/19 09:24:36;;;;;;;12.27;6.23;;;2.70;99.90;;;;;;5058626;28;20216;-72
2023/01/19 09:27:02;;;;;;;12.87;6.47;;;2.20;99.90;;;;;;5059552;28;20206;-73
2023/01/19 09:29:27;;;;;;;13.97;7.17;;;2.00;99.90;;;;;;5039337;28;20185;-74
2023/01/19 09:31:53;;;;;;;10.53;6.40;;;2.40;99.90;;;;;;5059116;28;20604;-73
2023/01/19 09:34:19;;;;;;;12.10;6.17;;;2.50;99.90;;;;;;5064899;28;20224;-74
2023/01/19 09:36:46;;;;;;;10.37;6.23;;;2.50;99.90;;;;;;5040310;28;20707;-70
2023/01/19 09:39:11;;;;;;;14.20;6.93;;;2.50;99.90;;;;;;5058067;28;20183;-74
2023/01/19 09:41:41;;;;;;;11.57;6.33;;;2.70;99.90;;;;;;5041465;28;20214;-71
2023/01/19 09:44:18;;;;;;;10.67;5.87;;;2.50;99.90;;;;;;5054944;28;20259;-75
2023/01/19 09:46:44;;;;;;;11.47;6.90;;;2.70;99.90;;;;;;5060960;28;20284;-74
2023/01/19 09:49:18;;;;;;;9.27;5.83;;;2.80;99.90;;;;;;5046854;28;20579;-72
2023/01/19 09:51:47;;;;;;;12.40;5.60;;;2.80;99.90;;;;;;5061997;28;20220;-74
2023/01/19 09:54:19;;;;;;;11.33;6.10;;;2.70;99.90;;;;;;5066948;28;20198;-73
2023/01/19 09:56:47;;;;;;;9.47;5.97;;;2.70;99.90;;;;;;5031687;28;20196;-72
2023/01/19 09:59:24;;;;;;;16.27;6.63;;;2.60;99.90;;;;;;5063931;28;20349;-74
2023/01/19 10:02:03;;;;;;;11.90;6.43;;;2.70;99.90;;;;;;5043915;28;20719;-74
2023/01/19 10:04:40;;;;;;;10.23;6.27;;;2.80;99.90;;;;;;5063002;28;20288;-74
2023/01/19 10:07:08;;;;;;;9.53;5.97;;;2.90;99.90;;;;;;5063152;28;20210;-75
2023/01/19 10:10:05;;;;;;;11.80;6.63;;;2.90;99.90;;;;;;5064982;28;20298;-73
2023/01/19 10:12:31;;;;;;;11.40;6.63;;;2.60;99.90;;;;;;5017203;28;20367;-75
2023/01/19 10:15:12;;;;;;;10.33;5.67;;;2.60;99.90;;;;;;5050527;28;20720;-73
2023/01/19 10:18:03;;;;;;;12.37;6.53;;;2.60;99.90;;;;;;5060676;28;20210;-73
2023/01/19 10:20:35;;;;;;;9.07;6.20;;;2.60;99.90;;;;;;5059409;28;20223;-74
2023/01/19 10:23:04;;;;;;;12.07;6.40;;;2.50;99.90;;;;;;5064046;28;20309;-74
2023/01/19 10:25:30;;;;;;;15.73;7.00;;;2.20;99.90;;;;;;5041630;28;20257;-73
2023/01/19 10:27:58;;;;;;;10.37;6.90;;;2.20;99.90;;;;;;5066754;28;20211;-73
2023/01/19 10:30:29;;;;;;;10.17;6.77;;;2.20;99.90;;;;;;5061682;28;20245;-73
2023/01/19 10:32:54;;;;;;;14.33;5.40;;;2.20;99.90;;;;;;5070526;28;20248;-74
2023/01/19 10:35:25;;;;;;;12.27;6.33;;;2.40;99.90;;;;;;5047765;28;20242;-74
2023/01/19 10:37:57;;;;;;;10.50;6.43;;;2.50;99.90;;;;;;5062454;28;20263;-72
2023/01/19 10:41:05;;;;;;;12.87;5.80;;;2.50;99.90;;;;;;5067313;28;20215;-74
2023/01/19 10:43:40;;;;;;;15.97;6.47;;;2.50;99.90;;;;;;4966043;28;20225;-74
2023/01/19 10:46:16;;;;;;;10.37;6.17;;;2.70;99.90;;;;;;4965855;28;20215;-74
2023/01/19 10:48:42;;;;;;;10.57;6.03;;;2.90;99.90;;;;;;5022259;28;20218;-74
2023/01/19 10:51:09;;;;;;;9.73;6.57;;;2.70;99.90;;;;;;5066768;28;20578;-74
2023/01/19 10:53:36;;;;;;;8.40;5.83;;;2.80;99.90;;;;;;5063191;28;20281;-70
2023/01/19 10:56:15;;;;;;;8.87;6.07;;;3.00;99.90;;;;;;5061171;28;20260;-74
2023/01/19 10:58:41;;;;;;;11.93;6.20;;;3.00;99.90;;;;;;5023963;28;20213;-75
2023/01/19 11:01:19;;;;;;;11.33;6.50;;;3.00;99.90;;;;;;5062907;28;20210;-74
2023/01/19 11:03:44;;;;;;;10.40;6.97;;;3.10;99.90;;;;;;5042183;28;20240;-74
2023/01/19 11:06:16;;;;;;;12.90;6.17;;;3.00;99.90;;;;;;5065915;28;20201;-72
2023/01/19 11:08:42;;;;;;;10.83;6.50;;;3.10;99.90;;;;;;5064062;28;20172;-75
2023/01/19 11:11:08;;;;;;;11.23;6.47;;;3.00;99.90;;;;;;5056971;28;20249;-76
2023/01/19 11:13:35;;;;;;;10.33;6.60;;;3.10;99.90;;;;;;5043644;28;20214;-73
2023/01/19 11:16:07;;;;;;;11.00;6.30;;;3.20;99.90;;;;;;5045400;28;20304;-74
2023/01/19 11:18:38;;;;;;;12.20;6.67;;;3.10;99.90;;;;;;5061425;28;20218;-73
2023/01/19 11:21:07;;;;;;;10.77;7.17;;;3.00;99.90;;;;;;5065184;28;20325;-74
2023/01/19 11:23:41;;;;;;;10.07;6.27;;;3.10;99.90;;;;;;5045959;28;20314;-72
2023/01/19 11:26:14;;;;;;;18.80;7.63;;;3.00;99.90;;;;;;5038681;28;20222;-74
2023/01/19 11:28:45;;;;;;;9.40;6.37;;;3.20;99.90;;;;;;5066546;28;20219;-76
2023/01/19 11:31:13;;;;;;;11.03;7.00;;;3.30;99.90;;;;;;5061730;28;20248;-74
2023/01/19 11:33:51;;;;;;;10.13;6.97;;;3.10;99.90;;;;;;5044992;28;20226;-73
2023/01/19 11:36:22;;;;;;;13.03;7.07;;;3.30;99.90;;;;;;5057313;28;20619;-75
2023/01/19 11:38:54;;;;;;;17.53;8.07;;;3.30;99.90;;;;;;5063433;28;20262;-74
2023/01/19 11:41:25;;;;;;;10.90;6.70;;;3.30;99.90;;;;;;5067183;28;20226;-73
2023/01/19 11:43:54;;;;;;;9.97;5.90;;;3.30;99.90;;;;;;5061386;28;20234;-75
2023/01/19 11:46:21;;;;;;;11.83;6.40;;;3.40;99.90;;;;;;5061422;28;20237;-74
2023/01/19 11:49:07;;;;;;;12.33;6.80;;;3.50;99.90;;;;;;5061021;28;20218;-74
2023/01/19 11:52:01;;;;;;;11.43;6.73;;;3.40;99.90;;;;;;5059349;28;20599;-74
2023/01/19 11:54:35;;;;;;;11.40;6.40;;;3.60;99.90;;;;;;5059358;28;20302;-74
2023/01/19 11:57:09;;;;;;;13.33;7.17;;;3.30;99.90;;;;;;5040576;28;20219;-74
2023/01/19 11:59:35;;;;;;;11.50;7.37;;;3.20;99.90;;;;;;5055492;28;20206;-76
2023/01/19 12:02:12;;;;;;;10.63;6.87;;;3.20;99.90;;;;;;5044102;28;20207;-74
2023/01/19 12:04:41;;;;;;;11.60;6.53;;;3.10;99.90;;;;;;5057880;28;20217;-76
2023/01/19 12:07:11;;;;;;;11.97;7.67;;;3.20;99.90;;;;;;5061765;28;20207;-76
2023/01/19 12:09:46;;;;;;;8.53;6.80;;;3.30;99.90;;;;;;5061955;28;20273;-76
2023/01/19 12:12:22;;;;;;;14.47;7.07;;;3.40;99.90;;;;;;5040684;28;20594;-76
2023/01/19 12:15:22;;;;;;;14.30;7.17;;;3.50;99.90;;;;;;5043552;28;20211;-77
2023/01/19 12:17:50;;;;;;;14.20;7.20;;;3.50;99.90;;;;;;5023449;28;20210;-76
2023/01/19 12:20:30;;;;;;;16.37;7.03;;;3.40;99.90;;;;;;5058229;28;20256;-76
2023/01/19 12:23:23;;;;;;;13.13;7.53;;;3.30;99.90;;;;;;5061330;28;20280;-76
2023/01/19 12:26:07;;;;;;;12.57;7.27;;;3.40;99.90;;;;;;5063169;28;20222;-74
2023/01/19 12:28:40;;;;;;;10.17;7.00;;;3.50;99.90;;;;;;5057868;28;20582;-74
2023/01/19 12:31:07;;;;;;;9.40;6.50;;;3.60;99.90;;;;;;5043284;28;20609;-75
2023/01/19 12:33:39;;;;;;;11.37;6.70;;;3.70;99.90;;;;;;5060451;28;20235;-74
2023/01/19 12:36:31;;;;;;;10.30;6.43;;;3.70;99.90;;;;;;5061396;28;20593;-74
2023/01/19 12:39:14;;;;;;;10.17;6.90;;;3.60;99.90;;;;;;5043850;28;20212;-73
2023/01/19 12:41:41;;;;;;;7.57;6.33;;;3.70;99.90;;;;;;5060894;28;20229;-76
2023/01/19 12:44:10;;;;;;;11.77;7.03;;;3.80;99.90;;;;;;5062732;28;20215;-75
2023/01/19 12:46:46;;;;;;;14.90;7.13;;;3.70;99.90;;;;;;5028455;28;20693;-75
2023/01/19 12:49:37;;;;;;;11.83;6.67;;;3.50;99.90;;;;;;5047137;28;20211;-75
2023/01/19 12:52:12;;;;;;;11.70;6.77;;;3.50;99.90;;;;;;5042310;28;20211;-76
2023/01/19 12:54:41;;;;;;;9.63;6.67;;;3.40;99.90;;;;;;5057676;28;20278;-74
2023/01/19 12:57:26;;;;;;;12.03;6.83;;;3.40;99.90;;;;;;5060709;28;20206;-76
2023/01/19 12:59:59;;;;;;;10.67;6.70;;;3.40;99.90;;;;;;5057597;28;20184;-76